Observation data for Silverton on 07/05/2020      Previous  Date  Next       Current Mesonet Observations  Soil Data  Daily Summary Page  Observations in Plain Language
KSVS 050500Z 08003KT 21/19 A3002 RMK A01 T02100185  RH  090%=      5-min Rain = 0
KSVS 050505Z 09003KT 21/19 A3002 RMK A01 T02100185  RH  090%=      5-min Rain = 0
KSVS 050510Z 09003KT 21/18 A3002 RMK A01 T02080184  RH  091%=      5-min Rain = 0
KSVS 050515Z 06004KT 21/18 A3002 RMK A01 T02080184  RH  091%=      5-min Rain = 0
KSVS 050520Z 11004KT 21/18 A3002 RMK A01 T02090184  RH  090%=      5-min Rain = 0
KSVS 050525Z 07003KT 21/18 A3002 RMK A01 T02090182  RH  089%=      5-min Rain = 0
KSVS 050530Z 09002KT 21/18 A3002 RMK A01 T02050181  RH  091%=      5-min Rain = 0
KSVS 050535Z 09003KT 20/18 A3002 RMK A01 T02040183  RH  092%=      5-min Rain = 0
KSVS 050540Z 06003KT 20/18 A3002 RMK A01 T02040182  RH  092%=      5-min Rain = 0
KSVS 050545Z 04005KT 20/18 A3002 RMK A01 T02020180  RH  092%=      5-min Rain = 0
KSVS 050550Z 03007KT 20/18 A3002 RMK A01 T02030181  RH  092%=      5-min Rain = 0
KSVS 050555Z 03006KT 20/18 A3002 RMK A01 T02040182  RH  092%=      5-min Rain = 0
KSVS 050600Z 02005KT 21/18 A3002 RMK A01 T02050183  RH  092%=      5-min Rain = 0
KSVS 050605Z 02004KT 21/18 A3002 RMK A01 T02050182  RH  092%=      5-min Rain = 0
KSVS 050610Z 02006KT 20/18 A3002 RMK A01 T02040182  RH  092%=      5-min Rain = 0
KSVS 050615Z 01004KT 20/18 A3003 RMK A01 T02040183  RH  092%=      5-min Rain = 0
KSVS 050620Z 01001KT 20/18 A3003 RMK A01 T02040183  RH  093%=      5-min Rain = 0
KSVS 050625Z 00002KT 21/18 A3003 RMK A01 T02050184  RH  093%=      5-min Rain = 0
KSVS 050630Z 03003KT 21/19 A3003 RMK A01 T02050185  RH  093%=      5-min Rain = 0
KSVS 050635Z 04003KT 21/19 A3003 RMK A01 T02070187  RH  093%=      5-min Rain = 0
KSVS 050640Z 02002KT 21/19 A3003 RMK A01 T02070187  RH  093%=      5-min Rain = 0
KSVS 050645Z 30007G21KT 21/19 A3004 RMK A01 T02070187  RH  093%=      5-min Rain = 0
KSVS 050650Z 31018G24KT 21/19 A3007 RMK A01 T02130187  RH  090%=      5-min Rain = 0
KSVS 050655Z 32016G22KT 23/17 A3008 RMK A01 T02300173  RH  074%=      5-min Rain = 0
KSVS 050700Z 31014G23KT 25/16 A3008 RMK A01 T02460162  RH  062%=      5-min Rain = 0
KSVS 050705Z 31016G22KT 24/17 A3009 RMK A01 T02420172  RH  069%=      5-min Rain = 0
KSVS 050710Z 31012KT 24/18 A3009 RMK A01 T02370175  RH  072%=      5-min Rain = 0
KSVS 050715Z 31012KT 24/18 A3009 RMK A01 T02360176  RH  073%=      5-min Rain = 0
KSVS 050720Z 32018G24KT 24/18 A301 RMK A01 T02350178  RH  074%=      5-min Rain = 0
KSVS 050725Z 31015G20KT 23/18 A301 RMK A01 T02270182  RH  080%=      5-min Rain = 0
KSVS 050730Z 30015G21KT 22/18 A301 RMK A01 T02180181  RH  084%=      5-min Rain = 0.01
KSVS 050735Z 30018G23KT 21/17 A301 RMK A01 T02110170  RH  081%=      5-min Rain = 0
KSVS 050740Z 30019G24KT 21/16 A3009 RMK A01 T02060163  RH  080%=      5-min Rain = 0.01
KSVS 050745Z 30019G26KT 20/16 A3009 RMK A01 T02030158  RH  079%=      5-min Rain = 0
KSVS 050750Z 30020KT 20/16 A3009 RMK A01 T01980158  RH  081%=      5-min Rain = 0
KSVS 050755Z 30019G25KT 20/16 A3009 RMK A01 T01960159  RH  083%=      5-min Rain = 0.01
KSVS 050800Z 30017G23KT 19/16 A3009 RMK A01 T01930160  RH  085%=      5-min Rain = 0
KSVS 050805Z 30017KT 20/16 A3009 RMK A01 T01950159  RH  084%=      5-min Rain = 0
KSVS 050810Z 30018KT 20/16 A301 RMK A01 T01950159  RH  083%=      5-min Rain = 0
KSVS 050815Z 30018G23KT 19/16 A301 RMK A01 T01940159  RH  084%=      5-min Rain = 0.01
KSVS 050820Z 28017KT 19/16 A301 RMK A01 T01910161  RH  087%=      5-min Rain = 0
KSVS 050825Z 29016KT 19/16 A301 RMK A01 T01920162  RH  087%=      5-min Rain = 0
KSVS 050830Z 28015KT 20/16 A301 RMK A01 T01960162  RH  085%=      5-min Rain = 0
KSVS 050835Z 28014KT 20/16 A301 RMK A01 T01970163  RH  085%=      5-min Rain = 0
KSVS 050840Z 28013KT 20/16 A301 RMK A01 T01960164  RH  086%=      5-min Rain = 0
KSVS 050845Z 28011KT 20/17 A301 RMK A01 T01950165  RH  087%=      5-min Rain = 0
KSVS 050850Z 28012KT 20/17 A301 RMK A01 T01950166  RH  087%=      5-min Rain = 0
KSVS 050855Z 29011KT 20/17 A3009 RMK A01 T01950165  RH  087%=      5-min Rain = 0
KSVS 050900Z 29009KT 20/17 A3009 RMK A01 T01960166  RH  087%=      5-min Rain = 0
KSVS 050905Z 28007KT 20/17 A3009 RMK A01 T01950167  RH  088%=      5-min Rain = 0
KSVS 050910Z 29007KT 20/17 A3009 RMK A01 T01950167  RH  088%=      5-min Rain = 0
KSVS 050915Z 27008KT 20/17 A3009 RMK A01 T01950168  RH  089%=      5-min Rain = 0
KSVS 050920Z 25009KT 20/17 A3009 RMK A01 T01950169  RH  089%=      5-min Rain = 0
KSVS 050925Z 25009KT 20/17 A3008 RMK A01 T01950168  RH  088%=      5-min Rain = 0
KSVS 050930Z 26008KT 19/17 A3008 RMK A01 T01940169  RH  090%=      5-min Rain = 0.01
KSVS 050935Z 26008KT 19/17 A3008 RMK A01 T01940169  RH  090%=      5-min Rain = 0
KSVS 050940Z 27008KT 19/17 A3008 RMK A01 T01940167  RH  089%=      5-min Rain = 0
KSVS 050945Z 28007KT 20/17 A3007 RMK A01 T01950166  RH  087%=      5-min Rain = 0
KSVS 050950Z 30007KT 19/17 A3006 RMK A01 T01930167  RH  089%=      5-min Rain = 0
KSVS 050955Z 31006KT 19/17 A3006 RMK A01 T01920168  RH  090%=      5-min Rain = 0
KSVS 051000Z 32004KT 19/17 A3005 RMK A01 T01910170  RH  092%=      5-min Rain = 0
KSVS 051005Z 34005KT 19/17 A3005 RMK A01 T01900170  RH  093%=      5-min Rain = 0
KSVS 051010Z 34006KT 19/17 A3005 RMK A01 T01890171  RH  094%=      5-min Rain = 0
KSVS 051015Z 34006KT 19/17 A3004 RMK A01 T01890172  RH  094%=      5-min Rain = 0
KSVS 051020Z 35006KT 19/17 A3003 RMK A01 T01890172  RH  094%=      5-min Rain = 0
KSVS 051025Z 36007KT 19/17 A3002 RMK A01 T01900171  RH  094%=      5-min Rain = 0
KSVS 051030Z 35008KT 19/17 A3002 RMK A01 T01890170  RH  093%=      5-min Rain = 0
KSVS 051035Z 31009KT 19/17 A3002 RMK A01 T01890170  RH  093%=      5-min Rain = 0
KSVS 051040Z 29011G18KT 19/17 A3002 RMK A01 T01910168  RH  091%=      5-min Rain = 0
KSVS 051045Z 31006KT 19/17 A3001 RMK A01 T01910167  RH  090%=      5-min Rain = 0
KSVS 051050Z 32006KT 19/17 A30 RMK A01 T01890166  RH  091%=      5-min Rain = 0
KSVS 051055Z 36004KT 19/17 A30 RMK A01 T01870165  RH  091%=      5-min Rain = 0
KSVS 051100Z 31006KT 18/17 A30 RMK A01 T01840165  RH  093%=      5-min Rain = 0
KSVS 051105Z 33004KT 18/17 A30 RMK A01 T01830165  RH  094%=      5-min Rain = 0
KSVS 051110Z 31003KT 18/17 A30 RMK A01 T01830165  RH  094%=      5-min Rain = 0
KSVS 051115Z 31004KT 18/17 A3001 RMK A01 T01820165  RH  094%=      5-min Rain = 0
KSVS 051120Z 29005KT 18/17 A3001 RMK A01 T01820166  RH  095%=      5-min Rain = 0
KSVS 051125Z 30004KT 18/17 A3001 RMK A01 T01830167  RH  095%=      5-min Rain = 0
KSVS 051130Z 29004KT 18/17 A3001 RMK A01 T01840168  RH  095%=      5-min Rain = 0
KSVS 051135Z 29004KT 18/17 A3001 RMK A01 T01840169  RH  096%=      5-min Rain = 0
KSVS 051140Z 28003KT 19/17 A3001 RMK A01 T01850170  RH  096%=      5-min Rain = 0
KSVS 051145Z 29002KT 19/17 A3001 RMK A01 T01860171  RH  096%=      5-min Rain = 0
KSVS 051150Z 32002KT 19/17 A3001 RMK A01 T01860171  RH  096%=      5-min Rain = 0
KSVS 051155Z 06003KT 19/17 A3002 RMK A01 T01860171  RH  096%=      5-min Rain = 0
KSVS 051200Z 14003KT 19/17 A3002 RMK A01 T01850171  RH  096%=      5-min Rain = 0
KSVS 051205Z 03004KT 19/17 A3002 RMK A01 T01870172  RH  096%=      5-min Rain = 0
KSVS 051210Z 02003KT 19/17 A3002 RMK A01 T01910169  RH  091%=      5-min Rain = 0
KSVS 051215Z 16001KT 19/17 A3002 RMK A01 T01910169  RH  092%=      5-min Rain = 0
KSVS 051220Z 11002KT 19/17 A3002 RMK A01 T01890171  RH  094%=      5-min Rain = 0
KSVS 051225Z 04001KT 19/17 A3002 RMK A01 T01880173  RH  095%=      5-min Rain = 0
KSVS 051230Z 29002KT 19/17 A3002 RMK A01 T01890173  RH  096%=      5-min Rain = 0
KSVS 051235Z 02003KT 19/17 A3002 RMK A01 T01890174  RH  095%=      5-min Rain = 0
KSVS 051240Z 03005KT 19/17 A3002 RMK A01 T01900174  RH  095%=      5-min Rain = 0
KSVS 051245Z 03006KT 19/17 A3002 RMK A01 T01910174  RH  095%=      5-min Rain = 0
KSVS 051250Z 03008KT 19/18 A3002 RMK A01 T01930175  RH  094%=      5-min Rain = 0
KSVS 051255Z 04009KT 20/17 A3003 RMK A01 T01970172  RH  090%=      5-min Rain = 0
KSVS 051300Z 05008KT 20/17 A3004 RMK A01 T01960170  RH  089%=      5-min Rain = 0
KSVS 051305Z 06006KT 20/17 A3005 RMK A01 T01960171  RH  089%=      5-min Rain = 0
KSVS 051310Z 09005KT 20/17 A3005 RMK A01 T01970170  RH  089%=      5-min Rain = 0
KSVS 051315Z 07005KT 20/17 A3005 RMK A01 T01990170  RH  088%=      5-min Rain = 0
KSVS 051320Z 04004KT 20/17 A3005 RMK A01 T02000171  RH  087%=      5-min Rain = 0
KSVS 051325Z 06003KT 20/17 A3005 RMK A01 T02010171  RH  087%=      5-min Rain = 0
KSVS 051330Z 06006KT 20/17 A3005 RMK A01 T02020172  RH  087%=      5-min Rain = 0
KSVS 051335Z 05008KT 20/17 A3006 RMK A01 T02030173  RH  088%=      5-min Rain = 0
KSVS 051340Z 03008KT 21/17 A3006 RMK A01 T02050172  RH  086%=      5-min Rain = 0
KSVS 051345Z 04009KT 20/17 A3006 RMK A01 T02040172  RH  086%=      5-min Rain = 0
KSVS 051350Z 03007KT 20/17 A3006 RMK A01 T02040172  RH  086%=      5-min Rain = 0
KSVS 051355Z 05009KT 21/17 A3006 RMK A01 T02060170  RH  084%=      5-min Rain = 0
KSVS 051400Z 05009KT 21/17 A3006 RMK A01 T02050172  RH  085%=      5-min Rain = 0
KSVS 051405Z 05008KT 20/17 A3007 RMK A01 T02020172  RH  088%=      5-min Rain = 0
KSVS 051410Z 05008KT 20/17 A3007 RMK A01 T01990174  RH  090%=      5-min Rain = 0
KSVS 051415Z 06008KT 20/17 A3007 RMK A01 T01990174  RH  090%=      5-min Rain = 0
KSVS 051420Z 07009KT 20/17 A3007 RMK A01 T01990172  RH  089%=      5-min Rain = 0
KSVS 051425Z 06008KT 20/17 A3008 RMK A01 T01990172  RH  089%=      5-min Rain = 0
KSVS 051430Z 08008KT 20/17 A3007 RMK A01 T02000173  RH  088%=      5-min Rain = 0
KSVS 051435Z 08006KT 20/17 A3007 RMK A01 T02020174  RH  088%=      5-min Rain = 0
KSVS 051440Z 07007KT 20/17 A3008 RMK A01 T02030174  RH  088%=      5-min Rain = 0
KSVS 051445Z 06008KT 20/17 A3008 RMK A01 T02030174  RH  087%=      5-min Rain = 0
KSVS 051450Z 05009KT 20/17 A3007 RMK A01 T02030173  RH  087%=      5-min Rain = 0
KSVS 051455Z 06011KT 20/17 A3007 RMK A01 T02030174  RH  088%=      5-min Rain = 0
KSVS 051500Z 07007KT 20/17 A3007 RMK A01 T02020174  RH  088%=      5-min Rain = 0
KSVS 051505Z 06007KT 20/17 A3007 RMK A01 T02020174  RH  088%=      5-min Rain = 0
KSVS 051510Z 07007KT 20/17 A3007 RMK A01 T02020174  RH  089%=      5-min Rain = 0
KSVS 051515Z 05007KT 20/18 A3008 RMK A01 T02030175  RH  088%=      5-min Rain = 0
KSVS 051520Z 05008KT 20/17 A3008 RMK A01 T02030174  RH  088%=      5-min Rain = 0
KSVS 051525Z 05007KT 21/18 A3007 RMK A01 T02090180  RH  088%=      5-min Rain = 0
KSVS 051530Z 06007KT 21/18 A3006 RMK A01 T02130179  RH  086%=      5-min Rain = 0
KSVS 051535Z 04004KT 21/18 A3007 RMK A01 T02110176  RH  085%=      5-min Rain = 0
KSVS 051540Z 05005KT 21/18 A3007 RMK A01 T02120175  RH  083%=      5-min Rain = 0
KSVS 051545Z 05005KT 21/18 A3007 RMK A01 T02140175  RH  082%=      5-min Rain = 0
KSVS 051550Z 04006KT 22/17 A3008 RMK A01 T02170173  RH  080%=      5-min Rain = 0
KSVS 051555Z 04007KT 22/17 A3008 RMK A01 T02200174  RH  079%=      5-min Rain = 0
KSVS 051600Z 06007KT 23/18 A3008 RMK A01 T02260176  RH  077%=      5-min Rain = 0
KSVS 051605Z 05008KT 23/17 A3008 RMK A01 T02250171  RH  075%=      5-min Rain = 0
KSVS 051610Z 04008KT 23/17 A3008 RMK A01 T02280173  RH  075%=      5-min Rain = 0
KSVS 051615Z 05008KT 23/17 A3008 RMK A01 T02330172  RH  072%=      5-min Rain = 0
KSVS 051620Z 06006KT 24/18 A3008 RMK A01 T02350175  RH  072%=      5-min Rain = 0
KSVS 051625Z 06007KT 24/17 A3007 RMK A01 T02350171  RH  071%=      5-min Rain = 0
KSVS 051630Z 05007KT 23/17 A3008 RMK A01 T02330169  RH  071%=      5-min Rain = 0
KSVS 051635Z 05007KT 23/17 A3008 RMK A01 T02320172  RH  073%=      5-min Rain = 0
KSVS 051640Z 04007KT 24/18 A3008 RMK A01 T02390175  RH  071%=      5-min Rain = 0
KSVS 051645Z 02007KT 24/18 A3008 RMK A01 T02430175  RH  069%=      5-min Rain = 0
KSVS 051650Z 03007KT 24/18 A3008 RMK A01 T02410175  RH  070%=      5-min Rain = 0
KSVS 051655Z 03007KT 24/18 A3008 RMK A01 T02360175  RH  072%=      5-min Rain = 0
KSVS 051700Z 06006KT 23/18 A3008 RMK A01 T02340175  RH  073%=      5-min Rain = 0
KSVS 051705Z 06005KT 24/18 A3008 RMK A01 T02350175  RH  072%=      5-min Rain = 0
KSVS 051710Z 05006KT 24/17 A3008 RMK A01 T02360171  RH  070%=      5-min Rain = 0
KSVS 051715Z 05006KT 24/17 A3008 RMK A01 T02350171  RH  071%=      5-min Rain = 0
KSVS 051720Z 06005KT 24/17 A3007 RMK A01 T02370170  RH  069%=      5-min Rain = 0
KSVS 051725Z 04006KT 24/17 A3007 RMK A01 T02370167  RH  068%=      5-min Rain = 0
KSVS 051730Z 02006KT 24/17 A3008 RMK A01 T02380166  RH  068%=      5-min Rain = 0
KSVS 051735Z 04007KT 24/17 A3008 RMK A01 T02400167  RH  067%=      5-min Rain = 0
KSVS 051740Z 04007KT 24/17 A3007 RMK A01 T02400166  RH  067%=      5-min Rain = 0
KSVS 051745Z 04007KT 24/17 A3007 RMK A01 T02410167  RH  066%=      5-min Rain = 0
KSVS 051750Z 04006KT 24/17 A3007 RMK A01 T02430168  RH  066%=      5-min Rain = 0
KSVS 051755Z 03007KT 26/17 A3007 RMK A01 T02560173  RH  063%=      5-min Rain = 0
KSVS 051800Z 03008KT 26/17 A3007 RMK A01 T02550170  RH  062%=      5-min Rain = 0
KSVS 051805Z 04006KT 25/17 A3007 RMK A01 T02520169  RH  063%=      5-min Rain = 0
KSVS 051810Z 04008G13KT 26/17 A3006 RMK A01 T02610168  RH  059%=      5-min Rain = 0
KSVS 051815Z 04008KT 26/16 A3006 RMK A01 T02640164  RH  057%=      5-min Rain = 0
KSVS 051820Z 03006KT 26/16 A3006 RMK A01 T02580161  RH  058%=      5-min Rain = 0.01
KSVS 051825Z 04007KT 26/15 A3006 RMK A01 T02590154  RH  055%=      5-min Rain = 0
KSVS 051830Z 03007KT 26/15 A3006 RMK A01 T02610153  RH  054%=      5-min Rain = 0
KSVS 051835Z 04006KT 27/16 A3006 RMK A01 T02690155  RH  052%=      5-min Rain = 0
KSVS 051840Z 03006KT 27/15 A3005 RMK A01 T02670153  RH  052%=      5-min Rain = 0
KSVS 051845Z 05007KT 27/15 A3005 RMK A01 T02710150  RH  050%=      5-min Rain = 0
KSVS 051850Z 05006KT 28/15 A3005 RMK A01 T02750150  RH  048%=      5-min Rain = 0
KSVS 051855Z 03005G10KT 27/15 A3005 RMK A01 T02730154  RH  050%=      5-min Rain = 0
KSVS 051900Z 02007G13KT 28/16 A3004 RMK A01 T02800156  RH  049%=      5-min Rain = 0
KSVS 051905Z 03005G11KT 29/15 A3004 RMK A01 T02850149  RH  045%=      5-min Rain = 0
KSVS 051910Z 02008KT 28/16 A3004 RMK A01 T02820157  RH  049%=      5-min Rain = 0
KSVS 051915Z 04007KT 28/16 A3004 RMK A01 T02820157  RH  049%=      5-min Rain = 0
KSVS 051920Z 02006KT 28/16 A3004 RMK A01 T02810158  RH  049%=      5-min Rain = 0
KSVS 051925Z 04007KT 28/15 A3004 RMK A01 T02830153  RH  047%=      5-min Rain = 0
KSVS 051930Z 07006KT 29/14 A3004 RMK A01 T02850142  RH  044%=      5-min Rain = 0
KSVS 051935Z 05006G12KT 28/15 A3003 RMK A01 T02840148  RH  045%=      5-min Rain = 0
KSVS 051940Z 07007KT 29/15 A3003 RMK A01 T02860154  RH  047%=      5-min Rain = 0
KSVS 051945Z 05007G12KT 29/16 A3003 RMK A01 T02890155  RH  046%=      5-min Rain = 0
KSVS 051950Z 04008G13KT 29/16 A3003 RMK A01 T02870157  RH  048%=      5-min Rain = 0
KSVS 051955Z 03007KT 28/16 A3002 RMK A01 T02840155  RH  048%=      5-min Rain = 0
KSVS 052000Z 04007KT 29/16 A3002 RMK A01 T02890157  RH  047%=      5-min Rain = 0
KSVS 052005Z 04006KT 29/15 A3002 RMK A01 T02890151  RH  045%=      5-min Rain = 0
KSVS 052010Z 04006G12KT 29/16 A3002 RMK A01 T02860155  RH  047%=      5-min Rain = 0
KSVS 052015Z 04005KT 29/15 A3002 RMK A01 T02880148  RH  044%=      5-min Rain = 0
KSVS 052020Z 04004KT 29/16 A3002 RMK A01 T02900158  RH  047%=      5-min Rain = 0
KSVS 052025Z 03006KT 30/16 A3001 RMK A01 T02950157  RH  045%=      5-min Rain = 0
KSVS 052030Z 06006KT 29/16 A3001 RMK A01 T02940155  RH  045%=      5-min Rain = 0
KSVS 052035Z 08004KT 29/15 A3001 RMK A01 T02940154  RH  045%=      5-min Rain = 0
KSVS 052040Z 08005KT 30/16 A3001 RMK A01 T02970158  RH  045%=      5-min Rain = 0
KSVS 052045Z 06006KT 29/16 A3001 RMK A01 T02930156  RH  046%=      5-min Rain = 0
KSVS 052050Z 10003KT 30/16 A3001 RMK A01 T02950156  RH  045%=      5-min Rain = 0
KSVS 052055Z 10005KT 30/16 A30 RMK A01 T02970158  RH  045%=      5-min Rain = 0
KSVS 052100Z 13003KT 30/16 A30 RMK A01 T02990158  RH  045%=      5-min Rain = 0
KSVS 052105Z 35003KT 31/15 A30 RMK A01 T03060154  RH  042%=      5-min Rain = 0
KSVS 052110Z 03003KT 30/15 A2999 RMK A01 T03000151  RH  042%=      5-min Rain = 0
KSVS 052115Z 04004KT 31/15 A2999 RMK A01 T03050151  RH  041%=      5-min Rain = 0
KSVS 052120Z 09003G9KT 31/16 A2999 RMK A01 T03060155  RH  042%=      5-min Rain = 0
KSVS 052125Z 04003KT 31/15 A2999 RMK A01 T03070147  RH  040%=      5-min Rain = 0
KSVS 052130Z 04002KT 31/15 A2999 RMK A01 T03060147  RH  040%=      5-min Rain = 0
KSVS 052135Z 07002KT 31/15 A2999 RMK A01 T03060149  RH  040%=      5-min Rain = 0
KSVS 052140Z 13001KT 31/15 A2999 RMK A01 T03080151  RH  040%=      5-min Rain = 0
KSVS 052145Z 14004KT 31/16 A2999 RMK A01 T03100155  RH  041%=      5-min Rain = 0
KSVS 052150Z 05006G11KT 31/15 A2998 RMK A01 T03100149  RH  039%=      5-min Rain = 0
KSVS 052155Z 32005G10KT 31/14 A2998 RMK A01 T03090141  RH  038%=      5-min Rain = 0
KSVS 052200Z 30005KT 31/14 A2998 RMK A01 T03110142  RH  038%=      5-min Rain = 0
KSVS 052205Z 31004KT 31/14 A2998 RMK A01 T03110142  RH  038%=      5-min Rain = 0
KSVS 052210Z 32004KT 31/14 A2997 RMK A01 T03120141  RH  037%=      5-min Rain = 0
KSVS 052215Z 00005KT 31/14 A2997 RMK A01 T03120139  RH  036%=      5-min Rain = 0
KSVS 052220Z 03003KT 31/14 A2997 RMK A01 T03100139  RH  037%=      5-min Rain = 0
KSVS 052225Z 30002KT 31/14 A2997 RMK A01 T03140137  RH  036%=      5-min Rain = 0
KSVS 052230Z 25004KT 32/14 A2997 RMK A01 T03160137  RH  035%=      5-min Rain = 0
KSVS 052235Z 25004KT 32/14 A2996 RMK A01 T03170137  RH  035%=      5-min Rain = 0
KSVS 052240Z 27003KT 32/14 A2996 RMK A01 T03150138  RH  036%=      5-min Rain = 0
KSVS 052245Z 21004KT 32/14 A2996 RMK A01 T03150139  RH  036%=      5-min Rain = 0
KSVS 052250Z 18002KT 31/14 A2996 RMK A01 T03120139  RH  036%=      5-min Rain = 0
KSVS 052255Z 27003KT 32/14 A2996 RMK A01 T03180142  RH  036%=      5-min Rain = 0
KSVS 052300Z 15005KT 32/15 A2996 RMK A01 T03160149  RH  038%=      5-min Rain = 0
KSVS 052305Z 12002KT 32/15 A2996 RMK A01 T03160149  RH  038%=      5-min Rain = 0
KSVS 052310Z 03002KT 32/15 A2995 RMK A01 T03190146  RH  037%=      5-min Rain = 0
KSVS 052315Z 34005KT 32/15 A2995 RMK A01 T03160145  RH  037%=      5-min Rain = 0
KSVS 052320Z 07005KT 31/15 A2995 RMK A01 T03100147  RH  039%=      5-min Rain = 0
KSVS 052325Z 09006KT 31/15 A2995 RMK A01 T03050148  RH  040%=      5-min Rain = 0
KSVS 052330Z 11005KT 30/15 A2995 RMK A01 T03010147  RH  041%=      5-min Rain = 0
KSVS 052335Z 10003KT 30/15 A2995 RMK A01 T03010147  RH  041%=      5-min Rain = 0
KSVS 052340Z 15002KT 30/15 A2995 RMK A01 T03010147  RH  041%=      5-min Rain = 0
KSVS 052345Z 15001KT 30/15 A2995 RMK A01 T03010145  RH  040%=      5-min Rain = 0
KSVS 052350Z 30001KT 30/15 A2995 RMK A01 T03020147  RH  041%=      5-min Rain = 0
KSVS 052355Z 33004KT 30/14 A2995 RMK A01 T03020143  RH  040%=      5-min Rain = 0
KSVS 060000Z 33003KT 30/14 A2995 RMK A01 T03000143  RH  040%=      5-min Rain = 0
KSVS 060005Z 35003KT 30/14 A2995 RMK A01 T03000144  RH  040%=      5-min Rain = 0
KSVS 060010Z 34003KT 30/14 A2995 RMK A01 T03020143  RH  040%=      5-min Rain = 0
KSVS 060015Z 35003KT 31/14 A2995 RMK A01 T03050140  RH  038%=      5-min Rain = 0
KSVS 060020Z 00004KT 31/14 A2995 RMK A01 T03080141  RH  038%=      5-min Rain = 0
KSVS 060025Z 02003KT 31/14 A2995 RMK A01 T03050140  RH  038%=      5-min Rain = 0
KSVS 060030Z 02004KT 30/14 A2995 RMK A01 T03030141  RH  039%=      5-min Rain = 0
KSVS 060035Z 02004KT 30/14 A2995 RMK A01 T03030138  RH  038%=      5-min Rain = 0
KSVS 060040Z 01004KT 30/14 A2995 RMK A01 T03030136  RH  038%=      5-min Rain = 0
KSVS 060045Z 03003KT 30/14 A2996 RMK A01 T03020138  RH  038%=      5-min Rain = 0
KSVS 060050Z 08004KT 30/14 A2996 RMK A01 T03010144  RH  040%=      5-min Rain = 0
KSVS 060055Z 11006KT 30/16 A2996 RMK A01 T03000155  RH  043%=      5-min Rain = 0
KSVS 060100Z 12006KT 30/16 A2996 RMK A01 T02990157  RH  044%=      5-min Rain = 0
KSVS 060105Z 12006KT 29/16 A2996 RMK A01 T02910156  RH  046%=      5-min Rain = 0
KSVS 060110Z 12006KT 29/16 A2996 RMK A01 T02870156  RH  047%=      5-min Rain = 0
KSVS 060115Z 12006KT 28/16 A2996 RMK A01 T02830158  RH  049%=      5-min Rain = 0
KSVS 060120Z 12005KT 28/16 A2996 RMK A01 T02790161  RH  051%=      5-min Rain = 0
KSVS 060125Z 11005KT 28/16 A2996 RMK A01 T02760162  RH  052%=      5-min Rain = 0
KSVS 060130Z 10004KT 27/16 A2996 RMK A01 T02740163  RH  053%=      5-min Rain = 0
KSVS 060135Z 10003KT 27/16 A2996 RMK A01 T02740163  RH  053%=      5-min Rain = 0
KSVS 060140Z 09003KT 27/16 A2996 RMK A01 T02720163  RH  054%=      5-min Rain = 0
KSVS 060145Z 08003KT 27/16 A2996 RMK A01 T02700162  RH  054%=      5-min Rain = 0
KSVS 060150Z 05002KT 27/16 A2996 RMK A01 T02710161  RH  053%=      5-min Rain = 0
KSVS 060155Z 06001KT 27/16 A2996 RMK A01 T02720161  RH  053%=      5-min Rain = 0
KSVS 060200Z 06002KT 27/16 A2996 RMK A01 T02690163  RH  055%=      5-min Rain = 0
KSVS 060205Z 06003KT 26/16 A2996 RMK A01 T02620161  RH  056%=      5-min Rain = 0
KSVS 060210Z 08004KT 26/16 A2996 RMK A01 T02620159  RH  056%=      5-min Rain = 0
KSVS 060215Z 08003KT 26/16 A2997 RMK A01 T02620160  RH  056%=      5-min Rain = 0
KSVS 060220Z 09003KT 26/16 A2997 RMK A01 T02620162  RH  057%=      5-min Rain = 0
KSVS 060225Z 09003KT 26/17 A2997 RMK A01 T02560165  RH  060%=      5-min Rain = 0
KSVS 060230Z 04003KT 25/16 A2997 RMK A01 T02520162  RH  060%=      5-min Rain = 0
KSVS 060235Z 07002KT 26/16 A2997 RMK A01 T02550158  RH  058%=      5-min Rain = 0
KSVS 060240Z 06002KT 26/16 A2997 RMK A01 T02560155  RH  056%=      5-min Rain = 0
KSVS 060245Z 04002KT 25/16 A2998 RMK A01 T02520159  RH  059%=      5-min Rain = 0
KSVS 060250Z 02003KT 24/16 A2998 RMK A01 T02440163  RH  064%=      5-min Rain = 0
KSVS 060255Z 03005KT 25/16 A2998 RMK A01 T02470162  RH  062%=      5-min Rain = 0
KSVS 060300Z 04005KT 25/16 A2998 RMK A01 T02460164  RH  063%=      5-min Rain = 0
KSVS 060305Z 06006KT 25/16 A2999 RMK A01 T02540161  RH  059%=      5-min Rain = 0
KSVS 060310Z 07005KT 26/16 A2998 RMK A01 T02580162  RH  058%=      5-min Rain = 0
KSVS 060315Z 07004KT 26/16 A2998 RMK A01 T02570163  RH  059%=      5-min Rain = 0
KSVS 060320Z 08006KT 26/17 A2999 RMK A01 T02560170  RH  062%=      5-min Rain = 0
KSVS 060325Z 09007KT 26/17 A2999 RMK A01 T02570174  RH  063%=      5-min Rain = 0
KSVS 060330Z 09008KT 26/17 A2999 RMK A01 T02570174  RH  063%=      5-min Rain = 0
KSVS 060335Z 09010KT 26/17 A2999 RMK A01 T02570174  RH  063%=      5-min Rain = 0
KSVS 060340Z 09011KT 26/17 A2999 RMK A01 T02590172  RH  062%=      5-min Rain = 0
KSVS 060345Z 08015G20KT 26/17 A2999 RMK A01 T02570174  RH  063%=      5-min Rain = 0
KSVS 060350Z 08016G21KT 25/18 A30 RMK A01 T02520178  RH  067%=      5-min Rain = 0
KSVS 060355Z 08018KT 25/18 A30 RMK A01 T02490181  RH  070%=      5-min Rain = 0
KSVS 060400Z 08017G22KT 25/18 A30 RMK A01 T02460183  RH  072%=      5-min Rain = 0
KSVS 060405Z 08016G21KT 24/18 A30 RMK A01 T02430183  RH  073%=      5-min Rain = 0
KSVS 060410Z 08012G17KT 24/18 A3001 RMK A01 T02390184  RH  075%=      5-min Rain = 0
KSVS 060415Z 08012KT 24/18 A3001 RMK A01 T02360184  RH  077%=      5-min Rain = 0
KSVS 060420Z 09012KT 24/18 A3001 RMK A01 T02350184  RH  077%=      5-min Rain = 0
KSVS 060425Z 08012G17KT 23/18 A3002 RMK A01 T02340183  RH  077%=      5-min Rain = 0
KSVS 060430Z 08014G19KT 23/18 A3002 RMK A01 T02340182  RH  077%=      5-min Rain = 0
KSVS 060435Z 08012KT 23/18 A3002 RMK A01 T02330182  RH  077%=      5-min Rain = 0
KSVS 060440Z 08014KT 23/18 A3002 RMK A01 T02320182  RH  077%=      5-min Rain = 0
KSVS 060445Z 08011KT 23/18 A3002 RMK A01 T02300181  RH  078%=      5-min Rain = 0
KSVS 060450Z 08009KT 23/18 A3002 RMK A01 T02270181  RH  079%=      5-min Rain = 0
KSVS 060455Z 08012KT 23/18 A3001 RMK A01 T02250181  RH  080%=      5-min Rain = 0

Page generated in 0.0289 seconds.